Time;durP1;ratioP1;P1;durP2;ratioP2;P2;SDS_P1;SDS_P2;PMS_P1;PMS_P2;Temp;Humidity;BMP_temperature;BMP_pressure;BME280_temperature;BME280_humidity;BME280_pressure;Samples;Min_cycle;Max_cycle;Signal;HPM_P1;HPM_P2
2023/08/15 00:01:59;;;;;;;19.58;16.50;;;17.70;99.90;;;;;;4959336;28;20574;-74
2023/08/15 00:04:27;;;;;;;23.10;18.67;;;17.80;99.90;;;;;;4976023;28;20046;-74
2023/08/15 00:06:54;;;;;;;25.08;19.50;;;17.80;99.90;;;;;;4952832;28;20039;-73
2023/08/15 00:09:20;;;;;;;24.20;19.55;;;17.80;99.90;;;;;;4985098;28;20096;-74
2023/08/15 00:11:47;;;;;;;20.15;17.08;;;17.90;99.90;;;;;;4967114;28;20121;-74
2023/08/15 00:14:15;;;;;;;22.13;17.65;;;17.80;99.90;;;;;;4973301;28;20663;-74
2023/08/15 00:16:42;;;;;;;19.30;17.27;;;17.80;99.90;;;;;;4969071;28;20137;-74
2023/08/15 00:19:09;;;;;;;17.48;15.63;;;17.60;99.90;;;;;;4976150;28;20509;-73
2023/08/15 00:21:36;;;;;;;21.25;17.80;;;17.50;99.90;;;;;;4965198;28;20569;-75
2023/08/15 00:24:03;;;;;;;19.42;17.35;;;17.60;99.90;;;;;;4956502;28;20050;-74
2023/08/15 00:26:29;;;;;;;17.77;14.27;;;17.50;99.90;;;;;;4968965;28;20046;-75
2023/08/15 00:28:58;;;;;;;20.30;14.80;;;17.40;99.90;;;;;;4964804;28;20050;-73
2023/08/15 00:31:27;;;;;;;21.25;14.25;;;17.40;99.90;;;;;;4965759;28;20070;-73
2023/08/15 00:33:54;;;;;;;24.08;16.38;;;17.40;99.90;;;;;;4970220;28;20141;-73
2023/08/15 00:36:20;;;;;;;14.77;12.98;;;17.40;99.90;;;;;;4969506;28;20038;-76
2023/08/15 00:38:47;;;;;;;17.27;15.38;;;17.20;99.90;;;;;;4969949;28;20488;-74
2023/08/15 00:41:14;;;;;;;17.33;14.90;;;17.20;99.90;;;;;;4968014;28;20101;-74
2023/08/15 00:43:40;;;;;;;18.65;15.35;;;17.30;99.90;;;;;;4969172;28;20493;-75
2023/08/15 00:46:08;;;;;;;15.77;14.27;;;17.20;99.90;;;;;;4971522;28;20516;-74
2023/08/15 00:48:36;;;;;;;15.77;14.15;;;17.20;99.90;;;;;;4969693;28;20062;-74
2023/08/15 00:51:03;;;;;;;15.90;13.50;;;17.20;99.90;;;;;;4969868;28;20518;-74
2023/08/15 00:53:32;;;;;;;14.70;13.20;;;17.20;99.90;;;;;;4972013;28;20591;-75
2023/08/15 00:56:02;;;;;;;17.52;14.35;;;17.10;99.90;;;;;;4969617;28;20054;-74
2023/08/15 00:58:30;;;;;;;16.15;14.55;;;17.10;99.90;;;;;;4969365;28;20050;-75
2023/08/15 01:00:56;;;;;;;21.15;15.13;;;17.10;99.90;;;;;;4979409;28;20144;-75
2023/08/15 01:03:24;;;;;;;17.88;14.82;;;17.20;99.90;;;;;;4970780;28;20065;-73
2023/08/15 01:05:51;;;;;;;21.42;15.80;;;17.10;99.90;;;;;;4970669;28;20137;-73
2023/08/15 01:08:19;;;;;;;20.58;15.68;;;17.10;99.90;;;;;;4971311;28;20043;-74
2023/08/15 01:10:46;;;;;;;18.27;16.30;;;17.20;99.90;;;;;;4947588;28;20038;-74
2023/08/15 01:13:50;;;;;;;18.95;16.85;;;17.20;99.90;;;;;;4969516;28;21405;-75
2023/08/15 01:16:27;;;;;;;17.27;15.57;;;17.20;99.90;;;;;;4988082;28;20038;-76
2023/08/15 01:19:05;;;;;;;18.90;16.90;;;17.10;99.90;;;;;;4967287;28;22563;-76
2023/08/15 01:21:43;;;;;;;22.73;17.27;;;17.20;99.90;;;;;;4968834;28;20065;-76
2023/08/15 01:24:10;;;;;;;21.58;17.63;;;17.10;99.90;;;;;;4972143;28;20129;-76
2023/08/15 01:26:37;;;;;;;19.73;17.55;;;17.10;99.90;;;;;;4967749;28;20035;-75
2023/08/15 01:29:04;;;;;;;29.60;20.05;;;17.10;99.90;;;;;;4967617;28;20070;-75
2023/08/15 01:31:49;;;;;;;19.85;17.65;;;17.10;99.90;;;;;;4968385;28;20048;-75
2023/08/15 01:34:21;;;;;;;22.42;19.00;;;17.10;99.90;;;;;;4976459;28;20099;-76
2023/08/15 01:36:57;;;;;;;22.25;17.90;;;17.20;99.90;;;;;;4964432;28;20995;-75
2023/08/15 01:39:28;;;;;;;23.23;17.40;;;17.30;99.90;;;;;;4954269;28;20050;-75
2023/08/15 01:41:58;;;;;;;20.40;17.48;;;17.40;99.90;;;;;;4984123;28;20049;-74
2023/08/15 01:44:25;;;;;;;20.92;16.63;;;17.30;99.90;;;;;;4982427;28;20085;-75
2023/08/15 01:46:52;;;;;;;20.13;15.57;;;17.20;99.90;;;;;;4975236;28;20042;-75
2023/08/15 01:49:20;;;;;;;20.20;15.40;;;17.10;99.90;;;;;;4991722;28;20054;-74
2023/08/15 01:51:47;;;;;;;19.58;16.88;;;17.00;99.90;;;;;;4954192;28;20138;-74
2023/08/15 01:54:15;;;;;;;19.20;16.05;;;17.00;99.90;;;;;;4975432;28;20956;-75
2023/08/15 01:56:42;;;;;;;18.63;15.43;;;16.90;99.90;;;;;;4967829;28;20319;-75
2023/08/15 01:59:09;;;;;;;17.83;14.55;;;17.00;99.90;;;;;;4984939;28;20054;-75
2023/08/15 02:01:35;;;;;;;18.05;14.45;;;17.00;99.90;;;;;;4964476;28;20137;-75
2023/08/15 02:04:02;;;;;;;17.00;14.48;;;17.10;99.90;;;;;;4984496;28;20046;-75
2023/08/15 02:06:29;;;;;;;14.77;13.43;;;16.90;99.90;;;;;;4968464;28;20050;-75
2023/08/15 02:08:56;;;;;;;18.95;15.52;;;16.80;99.90;;;;;;4965193;28;20042;-74
2023/08/15 02:11:23;;;;;;;18.40;13.60;;;16.70;99.90;;;;;;4967946;28;20050;-74
2023/08/15 02:13:49;;;;;;;18.27;16.40;;;16.80;99.90;;;;;;4967579;28;20042;-73
2023/08/15 02:16:17;;;;;;;16.85;15.15;;;16.90;99.90;;;;;;4969894;28;20050;-73
2023/08/15 02:18:44;;;;;;;19.35;16.33;;;16.80;99.90;;;;;;4962244;28;20266;-74
2023/08/15 02:21:11;;;;;;;19.55;16.77;;;16.80;99.90;;;;;;4967973;28;20113;-73
2023/08/15 02:23:38;;;;;;;21.60;16.67;;;16.90;99.90;;;;;;4967546;28;20448;-74
2023/08/15 02:26:05;;;;;;;23.05;16.75;;;16.90;99.90;;;;;;4969067;28;20050;-75
2023/08/15 02:28:32;;;;;;;19.92;17.08;;;16.80;99.90;;;;;;4968297;28;20058;-75
2023/08/15 02:30:59;;;;;;;25.90;18.75;;;16.80;99.90;;;;;;4967696;28;21524;-75
2023/08/15 02:33:26;;;;;;;26.50;19.90;;;16.80;99.90;;;;;;4971818;28;20412;-75
2023/08/15 02:35:53;;;;;;;23.88;18.30;;;16.80;99.90;;;;;;4981585;28;20035;-76
2023/08/15 02:38:23;;;;;;;24.92;19.67;;;16.90;99.90;;;;;;4952965;28;20050;-75
2023/08/15 02:40:49;;;;;;;19.15;17.02;;;16.90;99.90;;;;;;4960246;28;20231;-73
2023/08/15 02:43:17;;;;;;;26.08;18.90;;;16.90;99.90;;;;;;4966102;28;20448;-75
2023/08/15 02:45:43;;;;;;;24.98;18.48;;;17.00;99.90;;;;;;4967865;28;20035;-74
2023/08/15 02:48:10;;;;;;;19.27;17.17;;;16.90;99.90;;;;;;4971529;28;20108;-74
2023/08/15 02:50:37;;;;;;;19.65;16.10;;;16.90;99.90;;;;;;4969955;28;20206;-73
2023/08/15 02:53:05;;;;;;;18.70;15.80;;;16.80;99.90;;;;;;4974421;28;20050;-75
2023/08/15 02:55:33;;;;;;;23.98;17.08;;;16.80;99.90;;;;;;4972507;28;20524;-75
2023/08/15 02:58:00;;;;;;;20.60;17.67;;;16.80;99.90;;;;;;4965639;28;20645;-76
2023/08/15 03:00:27;;;;;;;19.30;16.90;;;16.80;99.90;;;;;;4974296;28;20070;-76
2023/08/15 03:02:53;;;;;;;20.83;16.05;;;16.70;99.90;;;;;;4971431;28;20112;-76
2023/08/15 03:05:20;;;;;;;19.63;17.05;;;16.60;99.90;;;;;;4969722;28;20046;-74
2023/08/15 03:07:47;;;;;;;21.90;17.08;;;16.60;99.90;;;;;;4949140;28;20042;-74
2023/08/15 03:10:14;;;;;;;21.70;16.90;;;16.60;99.90;;;;;;4987173;28;20449;-74
2023/08/15 03:12:43;;;;;;;21.73;19.42;;;16.60;99.90;;;;;;4967193;28;20054;-75
2023/08/15 03:15:10;;;;;;;23.27;19.23;;;16.50;99.90;;;;;;4969564;28;20042;-74
2023/08/15 03:17:36;;;;;;;20.73;18.33;;;16.70;99.90;;;;;;4957631;28;20046;-74
2023/08/15 03:20:05;;;;;;;23.13;18.30;;;16.60;99.90;;;;;;4962432;28;20101;-74
2023/08/15 03:22:32;;;;;;;21.10;18.88;;;16.60;99.90;;;;;;4956743;28;20042;-74
2023/08/15 03:25:00;;;;;;;19.90;17.90;;;16.60;99.90;;;;;;4964690;28;20811;-75
2023/08/15 03:27:27;;;;;;;22.52;19.40;;;16.60;99.90;;;;;;4970462;28;20042;-74
2023/08/15 03:29:54;;;;;;;23.02;19.17;;;16.60;99.90;;;;;;4951998;28;20109;-74
2023/08/15 03:32:22;;;;;;;26.73;19.77;;;16.60;99.90;;;;;;4972301;28;20069;-74
2023/08/15 03:34:49;;;;;;;23.20;19.67;;;16.60;99.90;;;;;;4969997;28;20034;-74
2023/08/15 03:37:17;;;;;;;27.02;20.90;;;16.70;99.90;;;;;;4969595;28;20092;-75
2023/08/15 03:39:44;;;;;;;33.75;21.45;;;16.60;99.90;;;;;;4967095;28;20081;-74
2023/08/15 03:42:11;;;;;;;29.60;22.38;;;16.60;99.90;;;;;;4965756;28;20046;-74
2023/08/15 03:44:38;;;;;;;27.73;21.13;;;16.80;99.90;;;;;;4974508;28;20096;-74
2023/08/15 03:47:05;;;;;;;25.17;19.58;;;16.60;99.90;;;;;;4964406;28;20064;-74
2023/08/15 03:49:32;;;;;;;25.73;20.33;;;16.60;99.90;;;;;;4982842;28;20468;-74
2023/08/15 03:51:58;;;;;;;29.95;20.10;;;16.60;99.90;;;;;;4962535;28;20050;-74
2023/08/15 03:54:27;;;;;;;20.85;18.73;;;16.60;99.90;;;;;;4970757;28;20081;-74
2023/08/15 03:56:54;;;;;;;24.23;21.60;;;16.50;99.90;;;;;;4952403;28;20074;-75
2023/08/15 03:59:20;;;;;;;24.13;21.45;;;16.50;99.90;;;;;;4968887;28;20042;-74
2023/08/15 04:01:47;;;;;;;31.23;26.08;;;16.50;99.90;;;;;;4968991;28;20536;-75
2023/08/15 04:04:14;;;;;;;37.30;25.98;;;16.50;99.90;;;;;;4958256;28;20540;-74
2023/08/15 04:06:41;;;;;;;27.00;23.25;;;16.70;99.90;;;;;;4959766;28;20126;-74
2023/08/15 04:09:08;;;;;;;24.10;20.92;;;16.70;99.90;;;;;;4948529;28;20050;-74
2023/08/15 04:11:35;;;;;;;21.67;19.63;;;16.60;99.90;;;;;;4966991;28;20490;-74
2023/08/15 04:14:02;;;;;;;22.17;19.75;;;16.60;99.90;;;;;;4968776;28;20058;-74
2023/08/15 04:16:29;;;;;;;27.77;20.67;;;16.70;99.90;;;;;;4969677;28;20050;-74
2023/08/15 04:18:56;;;;;;;22.52;20.27;;;16.80;99.90;;;;;;4966887;28;20082;-74
2023/08/15 04:21:23;;;;;;;27.25;21.52;;;16.80;99.90;;;;;;4980501;28;20080;-74
2023/08/15 04:23:50;;;;;;;25.17;20.48;;;16.80;99.90;;;;;;4964068;28;20049;-74
2023/08/15 04:26:17;;;;;;;21.17;19.13;;;16.80;99.90;;;;;;4969740;28;20050;-73
2023/08/15 04:28:44;;;;;;;22.88;19.00;;;16.80;99.90;;;;;;4970694;28;20050;-74
2023/08/15 04:31:10;;;;;;;20.20;17.98;;;16.90;99.90;;;;;;4981203;28;20046;-74
2023/08/15 04:33:37;;;;;;;19.42;17.50;;;16.80;99.90;;;;;;4971002;28;20070;-74
2023/08/15 04:36:04;;;;;;;19.42;17.63;;;16.90;99.90;;;;;;4966044;28;20536;-74
2023/08/15 04:38:31;;;;;;;20.13;16.98;;;17.00;99.90;;;;;;4971593;28;20050;-75
2023/08/15 04:40:58;;;;;;;20.13;17.77;;;17.00;99.90;;;;;;4957579;28;20042;-76
2023/08/15 04:43:26;;;;;;;19.88;17.65;;;17.10;99.90;;;;;;4965358;28;20046;-73
2023/08/15 04:45:53;;;;;;;18.98;16.67;;;17.20;99.90;;;;;;4970147;28;20247;-74
2023/08/15 04:48:20;;;;;;;20.02;17.58;;;16.90;99.90;;;;;;4969847;28;20129;-74
2023/08/15 04:50:47;;;;;;;20.23;17.48;;;17.00;99.90;;;;;;4962481;28;20050;-73
2023/08/15 04:53:13;;;;;;;20.58;17.42;;;17.20;99.90;;;;;;4984648;28;20058;-74
2023/08/15 04:55:40;;;;;;;22.05;17.90;;;17.10;99.90;;;;;;4968352;28;20536;-74
2023/08/15 04:58:09;;;;;;;21.85;18.67;;;17.10;99.90;;;;;;4966089;28;20660;-73
2023/08/15 05:00:37;;;;;;;24.10;19.98;;;17.20;99.90;;;;;;4970315;28;20645;-73
2023/08/15 05:03:04;;;;;;;22.20;19.90;;;17.40;99.90;;;;;;4980548;28;20049;-74
2023/08/15 05:05:31;;;;;;;26.25;18.50;;;17.60;99.90;;;;;;4961175;28;20476;-74
2023/08/15 05:07:58;;;;;;;24.10;18.75;;;17.50;99.90;;;;;;4958704;28;20057;-74
2023/08/15 05:10:25;;;;;;;24.95;20.30;;;17.50;99.90;;;;;;4971747;28;20052;-74
2023/08/15 05:12:56;;;;;;;23.58;20.73;;;17.60;99.90;;;;;;4965356;28;20109;-73
2023/08/15 05:15:23;;;;;;;21.98;18.77;;;17.60;99.90;;;;;;4950445;28;20137;-73
2023/08/15 05:17:50;;;;;;;21.50;17.58;;;17.80;99.90;;;;;;4951400;28;20106;-74
2023/08/15 05:20:17;;;;;;;14.02;10.95;;;17.70;99.90;;;;;;4966097;28;20049;-74
2023/08/15 05:22:44;;;;;;;11.05;6.60;;;18.00;99.90;;;;;;4967617;28;20047;-74
2023/08/15 05:25:11;;;;;;;12.50;5.30;;;18.10;99.90;;;;;;4948438;28;20050;-73
2023/08/15 05:27:44;;;;;;;7.32;4.55;;;18.00;99.90;;;;;;4966329;28;20034;-73
2023/08/15 05:30:11;;;;;;;8.98;4.20;;;17.80;99.90;;;;;;4953667;28;21035;-72
2023/08/15 05:32:38;;;;;;;6.10;4.43;;;17.70;99.90;;;;;;4982869;28;20663;-72
2023/08/15 05:35:05;;;;;;;6.25;4.75;;;17.70;99.90;;;;;;4980813;28;20611;-71
2023/08/15 05:37:32;;;;;;;9.18;4.70;;;17.70;99.90;;;;;;4965825;28;20039;-72
2023/08/15 05:39:58;;;;;;;6.03;5.25;;;17.80;99.90;;;;;;4966816;28;20429;-71
2023/08/15 05:42:30;;;;;;;6.03;5.30;;;17.80;99.90;;;;;;4965025;28;20081;-72
2023/08/15 05:44:56;;;;;;;6.03;5.38;;;17.80;99.90;;;;;;4965313;28;20661;-72
2023/08/15 05:47:23;;;;;;;7.82;6.07;;;17.90;99.90;;;;;;4971613;28;20166;-72
2023/08/15 05:49:50;;;;;;;7.78;5.60;;;17.90;99.90;;;;;;4967619;28;20078;-72
2023/08/15 05:52:16;;;;;;;9.60;5.35;;;18.00;99.90;;;;;;4972938;28;20077;-72
2023/08/15 05:54:43;;;;;;;11.55;6.88;;;18.00;99.90;;;;;;4973430;28;20054;-72
2023/08/15 05:57:10;;;;;;;15.77;7.05;;;18.10;99.90;;;;;;4962516;28;20649;-72
2023/08/15 05:59:37;;;;;;;13.07;6.65;;;18.10;99.90;;;;;;4952808;28;20055;-72
2023/08/15 06:02:04;;;;;;;9.88;8.20;;;18.10;99.90;;;;;;4965507;28;20050;-71
2023/08/15 06:04:30;;;;;;;12.13;8.27;;;18.20;99.90;;;;;;4976576;28;20054;-72
2023/08/15 06:06:57;;;;;;;10.55;8.70;;;18.30;99.90;;;;;;4966797;28;20569;-74
2023/08/15 06:09:27;;;;;;;30.70;9.55;;;18.30;99.90;;;;;;4964919;28;20054;-72
2023/08/15 06:11:54;;;;;;;10.27;9.00;;;18.30;99.90;;;;;;4969233;28;20047;-71
2023/08/15 06:14:21;;;;;;;11.05;8.80;;;18.30;99.90;;;;;;4961565;28;20142;-71
2023/08/15 06:16:48;;;;;;;11.65;9.98;;;18.40;99.90;;;;;;4974083;28;20050;-74
2023/08/15 06:19:16;;;;;;;11.70;9.60;;;18.50;99.90;;;;;;4968062;28;20056;-74
2023/08/15 06:21:42;;;;;;;12.40;8.88;;;18.60;99.90;;;;;;4979210;28;20050;-74
2023/08/15 06:24:13;;;;;;;12.55;10.20;;;18.70;99.90;;;;;;4958398;28;20047;-74
2023/08/15 06:26:39;;;;;;;12.13;9.48;;;18.70;99.90;;;;;;4972353;28;20050;-73
2023/08/15 06:29:07;;;;;;;12.88;10.93;;;18.60;99.90;;;;;;4968054;28;20053;-73
2023/08/15 06:31:35;;;;;;;12.27;10.50;;;18.70;99.90;;;;;;4968176;28;20042;-73
2023/08/15 06:34:04;;;;;;;15.65;10.05;;;18.70;99.90;;;;;;4969785;28;20069;-73
2023/08/15 06:36:31;;;;;;;14.55;12.07;;;18.80;99.90;;;;;;4977228;28;20047;-72
2023/08/15 06:38:58;;;;;;;16.67;12.50;;;18.90;99.90;;;;;;4960377;28;20055;-72
2023/08/15 06:41:30;;;;;;;12.60;10.80;;;19.00;99.90;;;;;;4966224;28;20057;-73
2023/08/15 06:43:57;;;;;;;13.90;10.80;;;19.00;99.90;;;;;;4973313;28;20073;-72
2023/08/15 06:46:27;;;;;;;13.27;11.57;;;19.00;99.90;;;;;;4972963;28;20525;-73
2023/08/15 06:48:54;;;;;;;11.02;9.88;;;19.10;99.90;;;;;;4955312;28;20174;-73
2023/08/15 06:51:21;;;;;;;11.23;9.73;;;19.10;99.90;;;;;;4964752;28;20667;-72
2023/08/15 06:53:52;;;;;;;12.25;9.70;;;19.00;99.90;;;;;;4964621;28;20717;-73
2023/08/15 06:56:19;;;;;;;12.25;9.88;;;19.00;99.90;;;;;;4980551;28;20057;-73
2023/08/15 06:58:46;;;;;;;9.20;8.13;;;18.90;99.90;;;;;;4971969;28;20058;-74
2023/08/15 07:01:13;;;;;;;16.67;13.00;;;19.00;99.90;;;;;;4978877;28;20046;-73
2023/08/15 07:03:40;;;;;;;16.38;9.80;;;19.10;99.90;;;;;;4972559;28;20097;-74
2023/08/15 07:06:07;;;;;;;14.40;10.10;;;19.40;99.90;;;;;;4966419;28;20658;-73
2023/08/15 07:08:34;;;;;;;9.90;8.35;;;19.70;99.90;;;;;;4964117;28;20513;-73
2023/08/15 07:11:01;;;;;;;5.65;5.15;;;20.00;99.90;;;;;;4964380;28;20078;-73
2023/08/15 07:13:31;;;;;;;6.00;4.90;;;20.00;99.90;;;;;;4985219;28;20142;-74
2023/08/15 07:15:57;;;;;;;4.38;3.97;;;20.20;99.90;;;;;;4971990;28;20061;-74
2023/08/15 07:18:24;;;;;;;4.63;4.10;;;20.10;99.90;;;;;;4975580;28;20050;-73
2023/08/15 07:20:51;;;;;;;8.35;4.18;;;20.10;99.90;;;;;;4961719;28;20101;-74
2023/08/15 07:23:22;;;;;;;6.07;4.22;;;20.20;99.90;;;;;;4967895;28;20054;-73
2023/08/15 07:25:49;;;;;;;4.38;4.07;;;20.20;99.90;;;;;;4970727;28;20108;-74
2023/08/15 07:28:16;;;;;;;5.35;4.93;;;20.40;99.90;;;;;;4965931;28;20047;-74
2023/08/15 07:30:45;;;;;;;5.63;5.22;;;20.50;99.90;;;;;;4971758;28;20440;-74
2023/08/15 07:33:13;;;;;;;6.82;5.65;;;20.50;99.90;;;;;;4965796;28;20052;-74
2023/08/15 07:35:40;;;;;;;7.32;6.82;;;20.70;99.90;;;;;;4985160;28;20706;-74
2023/08/15 07:38:07;;;;;;;7.47;7.00;;;21.00;99.90;;;;;;4964409;28;20469;-74
2023/08/15 07:40:34;;;;;;;8.77;8.27;;;21.10;99.90;;;;;;4968823;28;20594;-74
2023/08/15 07:43:01;;;;;;;8.32;7.93;;;21.30;99.90;;;;;;4968146;28;20046;-74
2023/08/15 07:45:28;;;;;;;9.02;8.43;;;21.50;99.90;;;;;;4989286;28;20050;-74
2023/08/15 07:47:58;;;;;;;9.32;8.77;;;21.80;99.90;;;;;;4970767;28;20124;-74
2023/08/15 07:50:27;;;;;;;12.45;11.73;;;22.00;99.90;;;;;;4966726;28;20240;-74
2023/08/15 07:52:55;;;;;;;13.45;12.20;;;22.10;99.90;;;;;;4975891;28;20096;-74
2023/08/15 07:55:21;;;;;;;13.52;12.93;;;22.30;99.90;;;;;;4953763;28;20054;-75
2023/08/15 07:57:48;;;;;;;14.13;13.32;;;22.40;99.90;;;;;;4974466;28;20053;-75
2023/08/15 08:00:15;;;;;;;15.25;14.45;;;22.70;99.90;;;;;;4960938;28;20043;-75
2023/08/15 08:02:46;;;;;;;16.08;15.18;;;22.70;99.90;;;;;;4974473;28;20077;-75
2023/08/15 08:05:14;;;;;;;16.30;15.27;;;22.80;99.90;;;;;;4969732;28;20042;-74
2023/08/15 08:07:42;;;;;;;16.88;15.98;;;23.10;99.90;;;;;;4971264;28;20070;-75
2023/08/15 08:10:10;;;;;;;17.35;16.38;;;23.20;99.90;;;;;;4967919;28;20065;-75
2023/08/15 08:12:38;;;;;;;18.67;17.58;;;23.30;99.90;;;;;;4967904;28;20164;-75
2023/08/15 08:15:05;;;;;;;18.90;17.90;;;23.50;99.90;;;;;;4974577;28;20038;-74
2023/08/15 08:17:32;;;;;;;19.92;18.73;;;23.80;99.90;;;;;;4975813;28;20042;-75
2023/08/15 08:19:59;;;;;;;21.67;20.48;;;23.90;99.90;;;;;;4967572;28;20049;-75
2023/08/15 08:22:26;;;;;;;21.83;20.35;;;24.10;99.90;;;;;;4967447;28;20047;-75
2023/08/15 08:24:53;;;;;;;20.77;19.73;;;24.10;99.90;;;;;;4976948;28;20555;-75
2023/08/15 08:27:21;;;;;;;23.85;22.65;;;24.40;99.90;;;;;;4969184;28;20113;-75
2023/08/15 08:29:47;;;;;;;22.92;21.73;;;24.30;99.90;;;;;;4973958;28;20120;-75
2023/08/15 08:32:14;;;;;;;24.25;22.85;;;24.50;99.90;;;;;;4967324;28;20041;-74
2023/08/15 08:34:41;;;;;;;23.08;21.88;;;24.60;99.90;;;;;;4971963;28;20050;-75
2023/08/15 08:37:08;;;;;;;22.88;21.67;;;24.70;99.90;;;;;;4965134;28;20108;-75
2023/08/15 08:39:35;;;;;;;23.00;21.75;;;24.90;99.90;;;;;;4970443;28;20050;-75
2023/08/15 08:42:03;;;;;;;23.15;21.67;;;25.00;99.90;;;;;;4968485;28;20133;-74
2023/08/15 08:44:32;;;;;;;23.45;22.15;;;24.90;99.90;;;;;;4972235;28;20057;-75
2023/08/15 08:46:59;;;;;;;23.25;22.05;;;24.80;99.90;;;;;;4975013;28;20772;-75
2023/08/15 08:49:27;;;;;;;24.08;22.77;;;24.70;99.90;;;;;;4970552;28;21695;-75
2023/08/15 08:51:56;;;;;;;24.58;23.27;;;24.90;99.90;;;;;;4965380;28;20121;-75
2023/08/15 08:54:23;;;;;;;23.83;22.63;;;25.10;99.90;;;;;;4983156;28;20054;-74
2023/08/15 08:57:11;;;;;;;24.15;22.75;;;25.40;99.90;;;;;;4970365;28;20412;-75
2023/08/15 08:59:42;;;;;;;22.90;21.63;;;25.40;99.90;;;;;;4985938;28;20100;-74
2023/08/15 09:02:12;;;;;;;24.35;22.75;;;25.70;99.90;;;;;;4961691;28;20147;-75
2023/08/15 09:04:39;;;;;;;23.58;22.38;;;25.90;99.90;;;;;;4973211;28;20046;-75
2023/08/15 09:07:06;;;;;;;23.77;22.30;;;25.70;99.90;;;;;;4952793;28;20128;-75
2023/08/15 09:09:33;;;;;;;24.48;22.98;;;25.70;99.90;;;;;;4971252;28;20054;-75
2023/08/15 09:11:59;;;;;;;23.45;22.15;;;25.80;99.90;;;;;;4964790;28;20027;-75
2023/08/15 09:14:26;;;;;;;23.95;22.65;;;26.00;99.90;;;;;;4983030;28;20117;-75
2023/08/15 09:16:53;;;;;;;22.85;21.55;;;26.00;99.90;;;;;;4973806;28;20045;-75
2023/08/15 09:19:22;;;;;;;23.15;21.95;;;25.90;99.90;;;;;;4968347;28;20046;-75
2023/08/15 09:21:50;;;;;;;23.33;22.13;;;26.10;99.90;;;;;;4974120;28;20054;-75
2023/08/15 09:24:16;;;;;;;23.85;22.42;;;26.20;99.90;;;;;;4967787;28;20087;-75
2023/08/15 09:26:46;;;;;;;23.63;22.27;;;26.30;99.90;;;;;;4973982;28;20038;-75
2023/08/15 09:29:13;;;;;;;23.65;22.35;;;26.50;99.90;;;;;;4964425;28;20046;-75
2023/08/15 09:31:40;;;;;;;23.70;22.30;;;26.40;99.90;;;;;;4970754;28;20724;-74
2023/08/15 09:34:10;;;;;;;23.75;22.35;;;26.10;99.90;;;;;;4969115;28;20141;-75
2023/08/15 09:36:38;;;;;;;22.63;21.23;;;26.00;99.90;;;;;;4969644;28;20104;-75
2023/08/15 09:39:08;;;;;;;23.67;22.27;;;26.10;99.90;;;;;;4971481;28;20034;-74
2023/08/15 09:41:40;;;;;;;23.65;22.15;;;26.40;99.90;;;;;;4966341;28;20057;-75
2023/08/15 09:44:07;;;;;;;23.13;21.88;;;26.40;99.90;;;;;;4973467;28;20042;-75
2023/08/15 09:46:35;;;;;;;22.55;21.25;;;26.10;99.90;;;;;;4971367;28;20035;-75
2023/08/15 09:49:02;;;;;;;22.75;21.25;;;26.00;99.90;;;;;;4971203;28;20042;-74
2023/08/15 09:51:29;;;;;;;22.40;21.20;;;25.80;99.90;;;;;;4970083;28;20077;-75
2023/08/15 09:53:56;;;;;;;23.35;22.05;;;25.50;99.90;;;;;;4975501;28;20101;-75
2023/08/15 09:56:23;;;;;;;24.25;22.92;;;25.40;99.90;;;;;;4966939;28;20061;-75
2023/08/15 09:58:50;;;;;;;23.60;22.20;;;25.40;99.90;;;;;;4968735;28;20174;-74
2023/08/15 10:01:22;;;;;;;23.75;22.20;;;25.60;99.90;;;;;;4958776;28;20101;-74
2023/08/15 10:03:50;;;;;;;24.45;22.55;;;25.60;99.90;;;;;;4969213;28;20050;-74
2023/08/15 10:06:18;;;;;;;23.42;22.02;;;25.60;99.90;;;;;;4969153;28;20126;-74
2023/08/15 10:08:46;;;;;;;23.08;21.88;;;25.70;99.90;;;;;;4971172;28;20124;-74
2023/08/15 10:11:13;;;;;;;23.42;22.17;;;25.60;99.90;;;;;;4950048;28;20063;-73
2023/08/15 10:13:41;;;;;;;24.25;22.73;;;25.90;99.90;;;;;;4986836;28;20058;-74
2023/08/15 10:16:12;;;;;;;23.02;21.77;;;26.30;99.90;;;;;;4971770;28;20053;-75
2023/08/15 10:18:56;;;;;;;24.48;22.98;;;26.80;99.90;;;;;;4973279;28;20050;-74
2023/08/15 10:21:27;;;;;;;23.25;21.35;;;27.00;99.90;;;;;;4962515;28;20136;-74
2023/08/15 10:24:03;;;;;;;23.02;21.60;;;27.20;99.90;;;;;;4973347;28;20042;-74
2023/08/15 10:26:30;;;;;;;;;;;27.00;99.90;;;;;;4970144;28;20038;-75
2023/08/15 10:28:57;;;;;;;25.40;24.05;;;26.50;99.90;;;;;;4970609;28;19921;-74
2023/08/15 10:31:35;;;;;;;25.48;24.00;;;26.30;99.90;;;;;;4960844;28;20472;-74
2023/08/15 10:34:07;;;;;;;25.90;24.40;;;26.30;99.90;;;;;;4969297;28;20038;-74
2023/08/15 10:36:34;;;;;;;25.30;23.75;;;26.50;99.90;;;;;;4966155;28;20058;-74
2023/08/15 10:39:08;;;;;;;24.23;22.92;;;26.70;99.90;;;;;;4966685;28;20061;-75
2023/08/15 10:41:36;;;;;;;24.38;22.77;;;27.30;99.90;;;;;;4966357;28;20054;-74
2023/08/15 10:44:07;;;;;;;23.20;21.80;;;27.50;99.90;;;;;;4987531;28;20458;-75
2023/08/15 10:46:36;;;;;;;23.13;21.48;;;27.60;99.90;;;;;;4973029;28;20046;-75
2023/08/15 10:49:09;;;;;;;24.60;23.02;;;27.60;99.90;;;;;;4969928;28;20070;-75
2023/08/15 10:51:37;;;;;;;24.75;23.25;;;27.10;99.90;;;;;;4964456;28;20226;-76
2023/08/15 10:54:16;;;;;;;25.15;23.75;;;27.00;99.90;;;;;;4981666;28;20046;-76
2023/08/15 10:56:43;;;;;;;25.02;23.20;;;27.10;99.90;;;;;;4971738;28;20563;-75
2023/08/15 10:59:15;;;;;;;24.52;23.13;;;27.50;99.90;;;;;;4972779;28;20050;-76
2023/08/15 11:01:44;;;;;;;23.63;22.13;;;28.00;99.90;;;;;;4968860;28;20322;-77
2023/08/15 11:04:16;;;;;;;22.73;21.17;;;28.10;99.90;;;;;;4968453;28;20501;-76
2023/08/15 11:06:46;;;;;;;24.92;23.42;;;28.00;99.90;;;;;;4972068;28;20043;-76
2023/08/15 11:09:14;;;;;;;24.45;23.13;;;27.60;99.90;;;;;;4972485;28;20075;-75
2023/08/15 11:11:41;;;;;;;25.15;23.60;;;27.70;99.90;;;;;;4967980;28;20086;-75
2023/08/15 11:14:18;;;;;;;23.65;22.15;;;27.40;99.90;;;;;;4970374;28;20046;-76
2023/08/15 11:16:49;;;;;;;26.55;24.95;;;27.50;99.90;;;;;;4990880;28;20039;-76
2023/08/15 11:19:17;;;;;;;24.38;22.88;;;27.30;99.90;;;;;;4972628;28;20057;-76
2023/08/15 11:21:44;;;;;;;25.05;23.48;;;27.50;99.90;;;;;;4970312;28;20050;-75
2023/08/15 11:24:11;;;;;;;26.13;24.42;;;27.50;99.90;;;;;;4974076;28;20548;-76
2023/08/15 11:26:39;;;;;;;25.70;24.10;;;27.00;99.90;;;;;;4955522;28;20097;-76
2023/08/15 11:29:05;;;;;;;25.13;23.63;;;26.90;99.90;;;;;;4975128;28;20042;-77
2023/08/15 11:31:32;;;;;;;24.02;22.35;;;26.80;99.90;;;;;;4972714;28;20035;-77
2023/08/15 11:34:02;;;;;;;24.38;22.67;;;26.90;99.90;;;;;;4977899;28;20073;-75
2023/08/15 11:36:28;;;;;;;25.67;23.98;;;26.90;99.90;;;;;;4970864;28;20112;-76
2023/08/15 11:38:59;;;;;;;25.65;24.02;;;26.60;99.90;;;;;;4973048;28;20567;-76
2023/08/15 11:41:26;;;;;;;25.77;23.95;;;26.50;99.90;;;;;;4967109;28;20136;-77
2023/08/15 11:43:52;;;;;;;27.40;25.58;;;26.40;99.90;;;;;;4973636;28;20117;-78
2023/08/15 11:46:19;;;;;;;27.35;25.65;;;26.30;99.90;;;;;;4972980;28;20038;-75
2023/08/15 11:48:46;;;;;;;27.05;25.25;;;26.50;99.90;;;;;;4971602;28;20133;-76
2023/08/15 11:51:22;;;;;;;26.92;25.13;;;26.60;99.90;;;;;;4967405;28;20034;-77
2023/08/15 11:53:52;;;;;;;27.17;25.40;;;26.30;99.90;;;;;;4978319;28;20483;-76
2023/08/15 11:56:20;;;;;;;28.42;26.15;;;26.20;99.90;;;;;;4973740;28;20077;-76
2023/08/15 11:58:47;;;;;;;28.73;26.65;;;25.90;99.90;;;;;;4989081;28;20116;-77
2023/08/15 12:01:15;;;;;;;28.92;26.65;;;25.70;99.90;;;;;;4971378;28;20133;-75
2023/08/15 12:03:42;;;;;;;30.45;27.88;;;25.70;99.90;;;;;;4949566;28;20057;-74
2023/08/15 12:06:11;;;;;;;27.98;25.95;;;25.40;99.90;;;;;;4988707;28;20744;-80
2023/08/15 12:08:41;;;;;;;27.27;25.20;;;25.30;99.90;;;;;;4960107;28;20133;-76
2023/08/15 12:11:09;;;;;;;27.75;25.65;;;25.20;99.90;;;;;;4966405;28;20050;-76
2023/08/15 12:13:38;;;;;;;28.63;26.63;;;25.10;99.90;;;;;;4968787;28;20070;-76
2023/08/15 12:16:06;;;;;;;27.83;25.75;;;25.00;99.90;;;;;;4973310;28;20078;-75
2023/08/15 12:18:34;;;;;;;27.33;25.25;;;25.10;99.90;;;;;;4972359;28;20050;-76
2023/08/15 12:21:03;;;;;;;28.15;26.05;;;25.10;99.90;;;;;;4972925;28;20042;-76
2023/08/15 12:23:31;;;;;;;28.92;26.27;;;25.20;99.90;;;;;;4960822;28;20084;-76
2023/08/15 12:25:57;;;;;;;28.00;26.10;;;25.20;99.90;;;;;;4974206;28;20548;-75
2023/08/15 12:28:24;;;;;;;29.27;27.27;;;25.20;99.90;;;;;;4967670;28;20109;-74
2023/08/15 12:30:55;;;;;;;29.63;27.42;;;25.30;99.90;;;;;;4972869;28;20046;-76
2023/08/15 12:33:22;;;;;;;28.98;26.50;;;25.20;99.90;;;;;;4972580;28;20114;-75
2023/08/15 12:36:07;;;;;;;30.23;27.90;;;25.10;99.90;;;;;;4975316;28;20046;-76